sensor_id;sensor_type;location;lat;lon;timestamp;temperature;humidity
27858;DHT22;16852;51.446;6.528;2023-04-24T00:01:19;12.00;99.90
27858;DHT22;16852;51.446;6.528;2023-04-24T00:03:19;12.00;99.90
27858;DHT22;16852;51.446;6.528;2023-04-24T00:05:21;12.00;99.90
27858;DHT22;16852;51.446;6.528;2023-04-24T00:07:22;11.90;99.90
27858;DHT22;16852;51.446;6.528;2023-04-24T00:09:23;11.90;99.90
27858;DHT22;16852;51.446;6.528;2023-04-24T00:11:24;11.90;99.90
27858;DHT22;16852;51.446;6.528;2023-04-24T00:13:25;11.90;99.90
27858;DHT22;16852;51.446;6.528;2023-04-24T00:15:25;11.90;99.90
27858;DHT22;16852;51.446;6.528;2023-04-24T00:17:26;11.80;99.90
27858;DHT22;16852;51.446;6.528;2023-04-24T00:19:27;11.80;99.90
27858;DHT22;16852;51.446;6.528;2023-04-24T00:21:27;11.80;99.90
27858;DHT22;16852;51.446;6.528;2023-04-24T00:23:28;11.80;99.90
27858;DHT22;16852;51.446;6.528;2023-04-24T00:25:28;11.80;99.90
27858;DHT22;16852;51.446;6.528;2023-04-24T00:27:29;11.70;99.90
27858;DHT22;16852;51.446;6.528;2023-04-24T00:29:30;11.80;99.90
27858;DHT22;16852;51.446;6.528;2023-04-24T00:31:31;11.70;99.90
27858;DHT22;16852;51.446;6.528;2023-04-24T00:33:31;11.70;99.90
27858;DHT22;16852;51.446;6.528;2023-04-24T00:35:32;11.70;99.90
27858;DHT22;16852;51.446;6.528;2023-04-24T00:37:32;11.70;99.90
27858;DHT22;16852;51.446;6.528;2023-04-24T00:39:33;11.70;99.90
27858;DHT22;16852;51.446;6.528;2023-04-24T00:41:34;11.70;99.90
27858;DHT22;16852;51.446;6.528;2023-04-24T00:43:35;11.70;99.90
27858;DHT22;16852;51.446;6.528;2023-04-24T00:45:35;11.70;99.90
27858;DHT22;16852;51.446;6.528;2023-04-24T00:47:36;11.60;99.90
27858;DHT22;16852;51.446;6.528;2023-04-24T00:49:37;11.60;99.90
27858;DHT22;16852;51.446;6.528;2023-04-24T00:51:37;11.50;99.90
27858;DHT22;16852;51.446;6.528;2023-04-24T00:53:38;11.50;99.90
27858;DHT22;16852;51.446;6.528;2023-04-24T00:55:39;11.50;99.90
27858;DHT22;16852;51.446;6.528;2023-04-24T00:57:39;11.50;99.90
27858;DHT22;16852;51.446;6.528;2023-04-24T00:59:41;11.50;99.90
27858;DHT22;16852;51.446;6.528;2023-04-24T01:01:42;11.50;99.90
27858;DHT22;16852;51.446;6.528;2023-04-24T01:03:43;11.40;99.90
27858;DHT22;16852;51.446;6.528;2023-04-24T01:05:44;11.40;99.90
27858;DHT22;16852;51.446;6.528;2023-04-24T01:07:45;11.40;99.90
27858;DHT22;16852;51.446;6.528;2023-04-24T01:09:49;11.40;99.90
27858;DHT22;16852;51.446;6.528;2023-04-24T01:11:51;11.40;99.90
27858;DHT22;16852;51.446;6.528;2023-04-24T01:13:52;11.40;99.90
27858;DHT22;16852;51.446;6.528;2023-04-24T01:15:53;11.40;99.90
27858;DHT22;16852;51.446;6.528;2023-04-24T01:17:53;11.40;99.90
27858;DHT22;16852;51.446;6.528;2023-04-24T01:19:54;11.20;99.90
27858;DHT22;16852;51.446;6.528;2023-04-24T01:21:58;11.30;99.90
27858;DHT22;16852;51.446;6.528;2023-04-24T01:23:59;11.30;99.90
27858;DHT22;16852;51.446;6.528;2023-04-24T01:26:00;11.30;99.90
27858;DHT22;16852;51.446;6.528;2023-04-24T01:28:01;11.20;99.90
27858;DHT22;16852;51.446;6.528;2023-04-24T01:30:02;11.20;99.90
27858;DHT22;16852;51.446;6.528;2023-04-24T01:32:04;11.30;99.90
27858;DHT22;16852;51.446;6.528;2023-04-24T01:34:05;11.30;99.90
27858;DHT22;16852;51.446;6.528;2023-04-24T01:36:06;11.20;99.90
27858;DHT22;16852;51.446;6.528;2023-04-24T01:38:07;11.30;99.90
27858;DHT22;16852;51.446;6.528;2023-04-24T01:40:08;11.30;99.90
27858;DHT22;16852;51.446;6.528;2023-04-24T01:42:09;11.20;99.90
27858;DHT22;16852;51.446;6.528;2023-04-24T01:44:10;11.20;99.90
27858;DHT22;16852;51.446;6.528;2023-04-24T01:46:10;11.20;99.90
27858;DHT22;16852;51.446;6.528;2023-04-24T01:48:12;11.20;99.90
27858;DHT22;16852;51.446;6.528;2023-04-24T01:50:13;11.20;99.90
27858;DHT22;16852;51.446;6.528;2023-04-24T01:52:14;11.20;99.90
27858;DHT22;16852;51.446;6.528;2023-04-24T01:54:14;11.20;99.90
27858;DHT22;16852;51.446;6.528;2023-04-24T01:56:15;11.20;99.90
27858;DHT22;16852;51.446;6.528;2023-04-24T01:58:15;11.20;99.90
27858;DHT22;16852;51.446;6.528;2023-04-24T02:00:16;11.20;99.90
27858;DHT22;16852;51.446;6.528;2023-04-24T02:02:17;11.20;99.90
27858;DHT22;16852;51.446;6.528;2023-04-24T02:04:17;11.20;99.90
27858;DHT22;16852;51.446;6.528;2023-04-24T02:06:18;11.20;99.90
27858;DHT22;16852;51.446;6.528;2023-04-24T02:08:18;11.20;99.90
27858;DHT22;16852;51.446;6.528;2023-04-24T02:10:19;11.10;99.90
27858;DHT22;16852;51.446;6.528;2023-04-24T02:12:20;11.20;99.90
27858;DHT22;16852;51.446;6.528;2023-04-24T02:14:20;11.10;99.90
27858;DHT22;16852;51.446;6.528;2023-04-24T02:16:21;11.10;99.90
27858;DHT22;16852;51.446;6.528;2023-04-24T02:18:21;11.10;99.90
27858;DHT22;16852;51.446;6.528;2023-04-24T02:20:23;11.00;99.90
27858;DHT22;16852;51.446;6.528;2023-04-24T02:22:23;11.10;99.90
27858;DHT22;16852;51.446;6.528;2023-04-24T02:24:24;11.10;99.90
27858;DHT22;16852;51.446;6.528;2023-04-24T02:26:25;11.10;99.90
27858;DHT22;16852;51.446;6.528;2023-04-24T02:28:25;11.10;99.90
27858;DHT22;16852;51.446;6.528;2023-04-24T02:30:26;11.10;99.90
27858;DHT22;16852;51.446;6.528;2023-04-24T02:32:26;11.10;99.90
27858;DHT22;16852;51.446;6.528;2023-04-24T02:34:27;11.00;99.90
27858;DHT22;16852;51.446;6.528;2023-04-24T02:36:28;11.10;99.90
27858;DHT22;16852;51.446;6.528;2023-04-24T02:38:29;11.00;99.90
27858;DHT22;16852;51.446;6.528;2023-04-24T02:40:30;11.10;99.90
27858;DHT22;16852;51.446;6.528;2023-04-24T02:42:30;11.10;99.90
27858;DHT22;16852;51.446;6.528;2023-04-24T02:44:31;11.10;99.90
27858;DHT22;16852;51.446;6.528;2023-04-24T02:46:31;11.10;99.90
27858;DHT22;16852;51.446;6.528;2023-04-24T02:48:32;11.00;99.90
27858;DHT22;16852;51.446;6.528;2023-04-24T02:50:32;11.10;99.90
27858;DHT22;16852;51.446;6.528;2023-04-24T02:52:33;11.10;99.90
27858;DHT22;16852;51.446;6.528;2023-04-24T02:54:34;11.10;99.90
27858;DHT22;16852;51.446;6.528;2023-04-24T02:56:35;11.10;99.90
27858;DHT22;16852;51.446;6.528;2023-04-24T02:58:35;11.10;99.90
27858;DHT22;16852;51.446;6.528;2023-04-24T03:00:36;11.10;99.90
27858;DHT22;16852;51.446;6.528;2023-04-24T03:02:37;11.10;99.90
27858;DHT22;16852;51.446;6.528;2023-04-24T03:04:37;11.10;99.90
27858;DHT22;16852;51.446;6.528;2023-04-24T03:06:38;11.10;99.90
27858;DHT22;16852;51.446;6.528;2023-04-24T03:08:39;11.10;99.90
27858;DHT22;16852;51.446;6.528;2023-04-24T03:10:39;11.10;99.90
27858;DHT22;16852;51.446;6.528;2023-04-24T03:12:40;11.10;99.90
27858;DHT22;16852;51.446;6.528;2023-04-24T03:14:40;11.10;99.90
27858;DHT22;16852;51.446;6.528;2023-04-24T03:16:41;11.10;99.90
27858;DHT22;16852;51.446;6.528;2023-04-24T03:18:42;11.10;99.90
27858;DHT22;16852;51.446;6.528;2023-04-24T03:20:44;11.10;99.90
27858;DHT22;16852;51.446;6.528;2023-04-24T03:22:45;11.10;99.90
27858;DHT22;16852;51.446;6.528;2023-04-24T03:24:46;11.00;99.90
27858;DHT22;16852;51.446;6.528;2023-04-24T03:26:46;11.10;99.90
27858;DHT22;16852;51.446;6.528;2023-04-24T03:28:47;11.10;99.90
27858;DHT22;16852;51.446;6.528;2023-04-24T03:30:47;11.00;99.90
27858;DHT22;16852;51.446;6.528;2023-04-24T03:32:48;11.00;99.90
27858;DHT22;16852;51.446;6.528;2023-04-24T03:34:49;11.00;99.90
27858;DHT22;16852;51.446;6.528;2023-04-24T03:36:50;11.00;99.90
27858;DHT22;16852;51.446;6.528;2023-04-24T03:38:51;11.10;99.90
27858;DHT22;16852;51.446;6.528;2023-04-24T03:40:51;11.00;99.90
27858;DHT22;16852;51.446;6.528;2023-04-24T03:42:52;11.10;99.90
27858;DHT22;16852;51.446;6.528;2023-04-24T03:44:52;11.10;99.90
27858;DHT22;16852;51.446;6.528;2023-04-24T03:46:53;11.10;99.90
27858;DHT22;16852;51.446;6.528;2023-04-24T03:48:54;11.20;99.90
27858;DHT22;16852;51.446;6.528;2023-04-24T03:50:54;11.10;99.90
27858;DHT22;16852;51.446;6.528;2023-04-24T03:52:55;11.10;99.90
27858;DHT22;16852;51.446;6.528;2023-04-24T03:54:55;11.10;99.90
27858;DHT22;16852;51.446;6.528;2023-04-24T03:56:56;11.10;99.90
27858;DHT22;16852;51.446;6.528;2023-04-24T03:58:57;11.10;99.90
27858;DHT22;16852;51.446;6.528;2023-04-24T04:00:57;11.10;99.90
27858;DHT22;16852;51.446;6.528;2023-04-24T04:02:58;11.10;99.90
27858;DHT22;16852;51.446;6.528;2023-04-24T04:04:59;11.10;99.90
27858;DHT22;16852;51.446;6.528;2023-04-24T04:07:00;11.00;99.90
27858;DHT22;16852;51.446;6.528;2023-04-24T04:09:03;11.10;99.90
27858;DHT22;16852;51.446;6.528;2023-04-24T04:11:04;11.10;99.90
27858;DHT22;16852;51.446;6.528;2023-04-24T04:13:05;11.00;99.90
27858;DHT22;16852;51.446;6.528;2023-04-24T04:15:07;11.00;99.90
27858;DHT22;16852;51.446;6.528;2023-04-24T04:17:07;11.00;99.90
27858;DHT22;16852;51.446;6.528;2023-04-24T04:19:08;11.00;99.90
27858;DHT22;16852;51.446;6.528;2023-04-24T04:21:08;11.00;99.90
27858;DHT22;16852;51.446;6.528;2023-04-24T04:23:09;10.90;99.90
27858;DHT22;16852;51.446;6.528;2023-04-24T04:25:10;11.00;99.90
27858;DHT22;16852;51.446;6.528;2023-04-24T04:27:11;11.00;99.90
27858;DHT22;16852;51.446;6.528;2023-04-24T04:29:13;11.00;99.90
27858;DHT22;16852;51.446;6.528;2023-04-24T04:31:14;11.00;99.90
27858;DHT22;16852;51.446;6.528;2023-04-24T04:33:14;11.00;99.90
27858;DHT22;16852;51.446;6.528;2023-04-24T04:35:15;11.00;99.90
27858;DHT22;16852;51.446;6.528;2023-04-24T04:37:16;10.90;99.90
27858;DHT22;16852;51.446;6.528;2023-04-24T04:39:16;10.90;99.90
27858;DHT22;16852;51.446;6.528;2023-04-24T04:41:18;10.80;99.90
27858;DHT22;16852;51.446;6.528;2023-04-24T04:43:20;10.90;99.90
27858;DHT22;16852;51.446;6.528;2023-04-24T04:45:21;10.90;99.90
27858;DHT22;16852;51.446;6.528;2023-04-24T04:47:21;10.80;99.90
27858;DHT22;16852;51.446;6.528;2023-04-24T04:49:25;10.80;99.90
27858;DHT22;16852;51.446;6.528;2023-04-24T04:51:29;10.80;99.90
27858;DHT22;16852;51.446;6.528;2023-04-24T04:53:29;10.80;99.90
27858;DHT22;16852;51.446;6.528;2023-04-24T04:55:30;10.80;99.90
27858;DHT22;16852;51.446;6.528;2023-04-24T04:57:31;10.80;99.90
27858;DHT22;16852;51.446;6.528;2023-04-24T04:59:31;10.80;99.90
27858;DHT22;16852;51.446;6.528;2023-04-24T05:01:32;10.70;99.90
27858;DHT22;16852;51.446;6.528;2023-04-24T05:03:33;10.70;99.90
27858;DHT22;16852;51.446;6.528;2023-04-24T05:05:33;10.70;99.90
27858;DHT22;16852;51.446;6.528;2023-04-24T05:07:34;10.70;99.90
27858;DHT22;16852;51.446;6.528;2023-04-24T05:09:35;10.70;99.90
27858;DHT22;16852;51.446;6.528;2023-04-24T05:11:35;10.80;99.90
27858;DHT22;16852;51.446;6.528;2023-04-24T05:13:36;10.70;99.90
27858;DHT22;16852;51.446;6.528;2023-04-24T05:15:36;10.80;99.90
27858;DHT22;16852;51.446;6.528;2023-04-24T05:17:37;10.70;99.90
27858;DHT22;16852;51.446;6.528;2023-04-24T05:19:40;10.70;99.90
27858;DHT22;16852;51.446;6.528;2023-04-24T05:21:40;10.70;99.90
27858;DHT22;16852;51.446;6.528;2023-04-24T05:23:41;10.70;99.90
27858;DHT22;16852;51.446;6.528;2023-04-24T05:25:42;10.60;99.90
27858;DHT22;16852;51.446;6.528;2023-04-24T05:27:43;10.70;99.90
27858;DHT22;16852;51.446;6.528;2023-04-24T05:29:44;10.70;99.90
27858;DHT22;16852;51.446;6.528;2023-04-24T05:31:45;10.70;99.90
27858;DHT22;16852;51.446;6.528;2023-04-24T05:33:46;10.70;99.90
27858;DHT22;16852;51.446;6.528;2023-04-24T05:35:46;10.70;99.90
27858;DHT22;16852;51.446;6.528;2023-04-24T05:37:47;10.70;99.90
27858;DHT22;16852;51.446;6.528;2023-04-24T05:39:48;10.70;99.90
27858;DHT22;16852;51.446;6.528;2023-04-24T05:41:48;10.70;99.90
27858;DHT22;16852;51.446;6.528;2023-04-24T05:43:49;10.60;99.90
27858;DHT22;16852;51.446;6.528;2023-04-24T05:45:50;10.60;99.90
27858;DHT22;16852;51.446;6.528;2023-04-24T05:47:50;10.60;99.90
27858;DHT22;16852;51.446;6.528;2023-04-24T05:49:52;10.60;99.90
27858;DHT22;16852;51.446;6.528;2023-04-24T05:51:53;10.50;99.90
27858;DHT22;16852;51.446;6.528;2023-04-24T05:53:54;10.60;99.90
27858;DHT22;16852;51.446;6.528;2023-04-24T05:55:55;10.50;99.90
27858;DHT22;16852;51.446;6.528;2023-04-24T05:57:55;10.50;99.90
27858;DHT22;16852;51.446;6.528;2023-04-24T05:59:56;10.50;99.90
27858;DHT22;16852;51.446;6.528;2023-04-24T06:01:56;10.40;99.90
27858;DHT22;16852;51.446;6.528;2023-04-24T06:03:57;10.40;99.90
27858;DHT22;16852;51.446;6.528;2023-04-24T06:05:58;10.40;99.90
27858;DHT22;16852;51.446;6.528;2023-04-24T06:07:59;10.40;99.90
27858;DHT22;16852;51.446;6.528;2023-04-24T06:09:59;10.40;99.90
27858;DHT22;16852;51.446;6.528;2023-04-24T06:12:00;10.40;99.90
27858;DHT22;16852;51.446;6.528;2023-04-24T06:14:01;10.40;99.90
27858;DHT22;16852;51.446;6.528;2023-04-24T06:16:01;10.40;99.90
27858;DHT22;16852;51.446;6.528;2023-04-24T06:18:02;10.30;99.90
27858;DHT22;16852;51.446;6.528;2023-04-24T06:20:03;10.40;99.90
27858;DHT22;16852;51.446;6.528;2023-04-24T06:22:06;10.30;99.90
27858;DHT22;16852;51.446;6.528;2023-04-24T06:24:06;10.30;99.90
27858;DHT22;16852;51.446;6.528;2023-04-24T06:26:07;10.30;99.90
27858;DHT22;16852;51.446;6.528;2023-04-24T06:28:07;10.30;99.90
27858;DHT22;16852;51.446;6.528;2023-04-24T06:30:08;10.30;99.90
27858;DHT22;16852;51.446;6.528;2023-04-24T06:32:09;10.30;99.90
27858;DHT22;16852;51.446;6.528;2023-04-24T06:34:10;10.30;99.90
27858;DHT22;16852;51.446;6.528;2023-04-24T06:36:11;10.20;99.90
27858;DHT22;16852;51.446;6.528;2023-04-24T06:38:12;10.10;99.90
27858;DHT22;16852;51.446;6.528;2023-04-24T06:40:13;10.20;99.90
27858;DHT22;16852;51.446;6.528;2023-04-24T06:42:14;10.20;99.90
27858;DHT22;16852;51.446;6.528;2023-04-24T06:44:14;10.10;99.90
27858;DHT22;16852;51.446;6.528;2023-04-24T06:46:15;10.10;99.90
27858;DHT22;16852;51.446;6.528;2023-04-24T06:48:16;10.10;99.90
27858;DHT22;16852;51.446;6.528;2023-04-24T06:50:17;10.20;99.90
27858;DHT22;16852;51.446;6.528;2023-04-24T06:52:18;10.20;99.90
27858;DHT22;16852;51.446;6.528;2023-04-24T06:54:19;10.20;99.90
27858;DHT22;16852;51.446;6.528;2023-04-24T06:56:20;10.10;99.90
27858;DHT22;16852;51.446;6.528;2023-04-24T06:58:21;10.10;99.90
27858;DHT22;16852;51.446;6.528;2023-04-24T07:00:21;10.20;99.90
27858;DHT22;16852;51.446;6.528;2023-04-24T07:02:24;10.20;99.90
27858;DHT22;16852;51.446;6.528;2023-04-24T07:04:25;10.30;99.90
27858;DHT22;16852;51.446;6.528;2023-04-24T07:06:26;10.20;99.90
27858;DHT22;16852;51.446;6.528;2023-04-24T07:08:27;10.20;99.90
27858;DHT22;16852;51.446;6.528;2023-04-24T07:10:30;10.20;99.90
27858;DHT22;16852;51.446;6.528;2023-04-24T07:12:31;10.20;99.90
27858;DHT22;16852;51.446;6.528;2023-04-24T07:14:32;10.10;99.90
27858;DHT22;16852;51.446;6.528;2023-04-24T07:16:33;10.10;99.90
27858;DHT22;16852;51.446;6.528;2023-04-24T07:18:33;10.00;99.90
27858;DHT22;16852;51.446;6.528;2023-04-24T07:20:34;10.00;99.90
27858;DHT22;16852;51.446;6.528;2023-04-24T07:22:35;10.00;99.90
27858;DHT22;16852;51.446;6.528;2023-04-24T07:24:35;10.00;99.90
27858;DHT22;16852;51.446;6.528;2023-04-24T07:26:37;10.00;99.90
27858;DHT22;16852;51.446;6.528;2023-04-24T07:28:37;9.90;99.90
27858;DHT22;16852;51.446;6.528;2023-04-24T07:30:38;10.00;99.90
27858;DHT22;16852;51.446;6.528;2023-04-24T07:32:39;9.90;99.90
27858;DHT22;16852;51.446;6.528;2023-04-24T07:34:39;9.80;99.90
27858;DHT22;16852;51.446;6.528;2023-04-24T07:36:41;9.90;99.90
27858;DHT22;16852;51.446;6.528;2023-04-24T07:38:42;9.80;99.90
27858;DHT22;16852;51.446;6.528;2023-04-24T07:40:43;9.80;99.90
27858;DHT22;16852;51.446;6.528;2023-04-24T07:42:43;9.80;99.90
27858;DHT22;16852;51.446;6.528;2023-04-24T07:44:44;9.80;99.90
27858;DHT22;16852;51.446;6.528;2023-04-24T07:46:46;9.80;99.90
27858;DHT22;16852;51.446;6.528;2023-04-24T07:48:47;9.80;99.90
27858;DHT22;16852;51.446;6.528;2023-04-24T07:50:48;9.80;99.90
27858;DHT22;16852;51.446;6.528;2023-04-24T07:52:49;9.80;99.90
27858;DHT22;16852;51.446;6.528;2023-04-24T07:54:49;9.80;99.90
27858;DHT22;16852;51.446;6.528;2023-04-24T07:56:58;9.80;99.90
27858;DHT22;16852;51.446;6.528;2023-04-24T07:58:59;9.80;99.90
27858;DHT22;16852;51.446;6.528;2023-04-24T08:01:01;9.90;99.90
27858;DHT22;16852;51.446;6.528;2023-04-24T08:03:02;9.90;99.90
27858;DHT22;16852;51.446;6.528;2023-04-24T08:05:02;9.90;99.90
27858;DHT22;16852;51.446;6.528;2023-04-24T08:07:03;9.90;99.90
27858;DHT22;16852;51.446;6.528;2023-04-24T08:09:04;9.90;99.90
27858;DHT22;16852;51.446;6.528;2023-04-24T08:11:05;9.90;99.90
27858;DHT22;16852;51.446;6.528;2023-04-24T08:13:05;9.90;99.90
27858;DHT22;16852;51.446;6.528;2023-04-24T08:15:06;9.90;99.90
27858;DHT22;16852;51.446;6.528;2023-04-24T08:17:07;9.90;99.90
27858;DHT22;16852;51.446;6.528;2023-04-24T08:19:08;9.90;99.90
27858;DHT22;16852;51.446;6.528;2023-04-24T08:21:08;9.90;99.90
27858;DHT22;16852;51.446;6.528;2023-04-24T08:23:09;9.90;99.90
27858;DHT22;16852;51.446;6.528;2023-04-24T08:25:10;10.00;99.90
27858;DHT22;16852;51.446;6.528;2023-04-24T08:27:11;10.00;99.90
27858;DHT22;16852;51.446;6.528;2023-04-24T08:29:11;10.00;99.90
27858;DHT22;16852;51.446;6.528;2023-04-24T08:31:12;10.10;99.90
27858;DHT22;16852;51.446;6.528;2023-04-24T08:33:14;10.10;99.90
27858;DHT22;16852;51.446;6.528;2023-04-24T08:35:14;10.10;99.90
27858;DHT22;16852;51.446;6.528;2023-04-24T08:37:15;10.10;99.90
27858;DHT22;16852;51.446;6.528;2023-04-24T08:39:17;10.10;99.90
27858;DHT22;16852;51.446;6.528;2023-04-24T08:41:18;10.10;99.90
27858;DHT22;16852;51.446;6.528;2023-04-24T08:43:22;10.00;99.90
27858;DHT22;16852;51.446;6.528;2023-04-24T08:45:23;10.00;99.90
27858;DHT22;16852;51.446;6.528;2023-04-24T08:47:25;9.90;99.90
27858;DHT22;16852;51.446;6.528;2023-04-24T08:49:27;9.80;99.90
27858;DHT22;16852;51.446;6.528;2023-04-24T08:51:29;9.80;99.90
27858;DHT22;16852;51.446;6.528;2023-04-24T08:53:32;9.70;99.90
27858;DHT22;16852;51.446;6.528;2023-04-24T08:55:33;9.70;99.90
27858;DHT22;16852;51.446;6.528;2023-04-24T08:57:35;9.60;99.90
27858;DHT22;16852;51.446;6.528;2023-04-24T08:59:36;9.60;99.90
27858;DHT22;16852;51.446;6.528;2023-04-24T09:01:39;9.60;99.90
27858;DHT22;16852;51.446;6.528;2023-04-24T09:03:40;9.50;99.90
27858;DHT22;16852;51.446;6.528;2023-04-24T09:05:43;9.60;99.90
27858;DHT22;16852;51.446;6.528;2023-04-24T09:07:49;9.50;99.90
27858;DHT22;16852;51.446;6.528;2023-04-24T09:09:54;9.50;99.90
27858;DHT22;16852;51.446;6.528;2023-04-24T09:11:55;9.50;99.90
27858;DHT22;16852;51.446;6.528;2023-04-24T09:13:57;9.40;99.90
27858;DHT22;16852;51.446;6.528;2023-04-24T09:15:58;9.50;99.90
27858;DHT22;16852;51.446;6.528;2023-04-24T09:18:01;9.40;99.90
27858;DHT22;16852;51.446;6.528;2023-04-24T09:20:02;9.40;99.90
27858;DHT22;16852;51.446;6.528;2023-04-24T09:22:06;9.40;99.90
27858;DHT22;16852;51.446;6.528;2023-04-24T09:24:14;9.40;99.90
27858;DHT22;16852;51.446;6.528;2023-04-24T09:26:18;9.40;99.90
27858;DHT22;16852;51.446;6.528;2023-04-24T09:28:22;9.50;99.90
27858;DHT22;16852;51.446;6.528;2023-04-24T09:30:25;9.40;99.90
27858;DHT22;16852;51.446;6.528;2023-04-24T09:32:26;9.50;99.90
27858;DHT22;16852;51.446;6.528;2023-04-24T09:34:27;9.50;99.90
27858;DHT22;16852;51.446;6.528;2023-04-24T09:36:33;9.50;99.90
27858;DHT22;16852;51.446;6.528;2023-04-24T09:38:38;9.50;99.90
27858;DHT22;16852;51.446;6.528;2023-04-24T09:40:39;9.60;99.90
27858;DHT22;16852;51.446;6.528;2023-04-24T09:42:53;9.60;99.90
27858;DHT22;16852;51.446;6.528;2023-04-24T09:44:53;9.60;99.90
27858;DHT22;16852;51.446;6.528;2023-04-24T09:46:56;9.70;99.90
27858;DHT22;16852;51.446;6.528;2023-04-24T09:48:57;9.60;99.90
27858;DHT22;16852;51.446;6.528;2023-04-24T09:50:58;9.60;99.90
27858;DHT22;16852;51.446;6.528;2023-04-24T09:53:02;9.60;99.90
27858;DHT22;16852;51.446;6.528;2023-04-24T09:55:11;9.60;99.90
27858;DHT22;16852;51.446;6.528;2023-04-24T09:57:14;9.60;99.90
27858;DHT22;16852;51.446;6.528;2023-04-24T09:59:16;9.60;99.90
27858;DHT22;16852;51.446;6.528;2023-04-24T10:01:32;9.70;99.90
27858;DHT22;16852;51.446;6.528;2023-04-24T10:03:33;9.70;99.90
27858;DHT22;16852;51.446;6.528;2023-04-24T10:05:37;9.70;99.90
27858;DHT22;16852;51.446;6.528;2023-04-24T10:07:39;9.70;99.90
27858;DHT22;16852;51.446;6.528;2023-04-24T10:09:39;9.80;99.90
27858;DHT22;16852;51.446;6.528;2023-04-24T10:11:45;9.80;99.90
27858;DHT22;16852;51.446;6.528;2023-04-24T10:13:46;9.90;99.90
27858;DHT22;16852;51.446;6.528;2023-04-24T10:15:47;9.90;99.90
27858;DHT22;16852;51.446;6.528;2023-04-24T10:17:49;9.90;99.90
27858;DHT22;16852;51.446;6.528;2023-04-24T10:19:54;9.90;99.90
27858;DHT22;16852;51.446;6.528;2023-04-24T10:21:56;10.00;99.90
27858;DHT22;16852;51.446;6.528;2023-04-24T10:23:57;9.90;99.90
27858;DHT22;16852;51.446;6.528;2023-04-24T10:26:00;9.90;99.90
27858;DHT22;16852;51.446;6.528;2023-04-24T10:28:01;9.90;99.90
27858;DHT22;16852;51.446;6.528;2023-04-24T10:30:02;9.90;99.90
27858;DHT22;16852;51.446;6.528;2023-04-24T10:32:03;9.90;99.90
27858;DHT22;16852;51.446;6.528;2023-04-24T10:34:07;10.00;99.90
27858;DHT22;16852;51.446;6.528;2023-04-24T10:36:12;10.10;99.90
27858;DHT22;16852;51.446;6.528;2023-04-24T10:38:15;10.10;99.90
27858;DHT22;16852;51.446;6.528;2023-04-24T10:40:31;10.20;99.90
27858;DHT22;16852;51.446;6.528;2023-04-24T10:42:32;10.20;99.90
27858;DHT22;16852;51.446;6.528;2023-04-24T10:44:36;10.30;99.90
27858;DHT22;16852;51.446;6.528;2023-04-24T10:46:38;10.30;99.90
27858;DHT22;16852;51.446;6.528;2023-04-24T10:49:07;10.40;99.90
27858;DHT22;16852;51.446;6.528;2023-04-24T10:51:12;10.50;99.90
27858;DHT22;16852;51.446;6.528;2023-04-24T10:53:18;10.50;99.90
27858;DHT22;16852;51.446;6.528;2023-04-24T10:55:41;10.60;99.90
27858;DHT22;16852;51.446;6.528;2023-04-24T10:58:04;10.70;99.90
27858;DHT22;16852;51.446;6.528;2023-04-24T11:00:19;10.70;99.90
27858;DHT22;16852;51.446;6.528;2023-04-24T11:02:36;10.60;99.90
27858;DHT22;16852;51.446;6.528;2023-04-24T11:04:36;10.60;99.90
27858;DHT22;16852;51.446;6.528;2023-04-24T11:06:37;10.60;99.90
27858;DHT22;16852;51.446;6.528;2023-04-24T11:08:42;10.50;99.90
27858;DHT22;16852;51.446;6.528;2023-04-24T11:10:50;10.40;99.90
27858;DHT22;16852;51.446;6.528;2023-04-24T11:12:54;10.40;99.90
27858;DHT22;16852;51.446;6.528;2023-04-24T11:16:59;10.30;99.90
27858;DHT22;16852;51.446;6.528;2023-04-24T11:21:12;10.20;99.90
27858;DHT22;16852;51.446;6.528;2023-04-24T11:23:13;10.20;99.90
27858;DHT22;16852;51.446;6.528;2023-04-24T11:25:15;10.30;99.90
27858;DHT22;16852;51.446;6.528;2023-04-24T11:27:18;10.30;99.90
27858;DHT22;16852;51.446;6.528;2023-04-24T11:29:20;10.40;99.90
27858;DHT22;16852;51.446;6.528;2023-04-24T11:31:40;10.40;99.90
27858;DHT22;16852;51.446;6.528;2023-04-24T11:33:48;10.50;99.90
27858;DHT22;16852;51.446;6.528;2023-04-24T11:35:51;10.70;99.90
27858;DHT22;16852;51.446;6.528;2023-04-24T11:37:53;10.80;99.90
27858;DHT22;16852;51.446;6.528;2023-04-24T11:39:55;10.80;99.90
27858;DHT22;16852;51.446;6.528;2023-04-24T11:42:02;10.80;99.90
27858;DHT22;16852;51.446;6.528;2023-04-24T11:44:06;10.90;99.90
27858;DHT22;16852;51.446;6.528;2023-04-24T11:46:07;10.90;99.90
27858;DHT22;16852;51.446;6.528;2023-04-24T11:48:08;10.80;99.90
27858;DHT22;16852;51.446;6.528;2023-04-24T11:50:13;10.90;99.90
27858;DHT22;16852;51.446;6.528;2023-04-24T11:52:15;10.80;99.90
27858;DHT22;16852;51.446;6.528;2023-04-24T11:54:17;10.80;99.90
27858;DHT22;16852;51.446;6.528;2023-04-24T11:56:21;10.80;99.90
27858;DHT22;16852;51.446;6.528;2023-04-24T11:58:22;10.70;99.90
27858;DHT22;16852;51.446;6.528;2023-04-24T12:00:31;10.60;99.90
27858;DHT22;16852;51.446;6.528;2023-04-24T12:02:34;10.60;99.90
27858;DHT22;16852;51.446;6.528;2023-04-24T12:04:40;10.60;99.90
27858;DHT22;16852;51.446;6.528;2023-04-24T12:07:01;10.60;99.90
27858;DHT22;16852;51.446;6.528;2023-04-24T12:09:01;10.70;99.90
27858;DHT22;16852;51.446;6.528;2023-04-24T12:11:04;10.70;99.90
27858;DHT22;16852;51.446;6.528;2023-04-24T12:13:07;10.70;99.90
27858;DHT22;16852;51.446;6.528;2023-04-24T12:15:09;10.70;99.90
27858;DHT22;16852;51.446;6.528;2023-04-24T12:17:10;10.70;99.90
27858;DHT22;16852;51.446;6.528;2023-04-24T12:19:11;10.70;99.90
27858;DHT22;16852;51.446;6.528;2023-04-24T12:21:29;10.70;99.90
27858;DHT22;16852;51.446;6.528;2023-04-24T12:23:35;10.70;99.90
27858;DHT22;16852;51.446;6.528;2023-04-24T12:25:36;10.70;99.90
27858;DHT22;16852;51.446;6.528;2023-04-24T12:27:36;10.70;99.90
27858;DHT22;16852;51.446;6.528;2023-04-24T12:29:37;10.80;99.90
27858;DHT22;16852;51.446;6.528;2023-04-24T12:31:37;10.80;99.90
27858;DHT22;16852;51.446;6.528;2023-04-24T12:33:38;10.90;99.90
27858;DHT22;16852;51.446;6.528;2023-04-24T12:35:40;10.90;99.90
27858;DHT22;16852;51.446;6.528;2023-04-24T12:37:42;10.90;99.90
27858;DHT22;16852;51.446;6.528;2023-04-24T12:40:03;10.90;99.90
27858;DHT22;16852;51.446;6.528;2023-04-24T12:42:04;11.00;99.90
27858;DHT22;16852;51.446;6.528;2023-04-24T12:44:10;11.00;99.90
27858;DHT22;16852;51.446;6.528;2023-04-24T12:46:11;11.00;99.90
27858;DHT22;16852;51.446;6.528;2023-04-24T12:48:11;11.00;99.90
27858;DHT22;16852;51.446;6.528;2023-04-24T12:50:14;10.90;99.90
27858;DHT22;16852;51.446;6.528;2023-04-24T12:52:15;10.90;99.90
27858;DHT22;16852;51.446;6.528;2023-04-24T12:54:16;11.00;99.90
27858;DHT22;16852;51.446;6.528;2023-04-24T12:56:16;11.00;99.90
27858;DHT22;16852;51.446;6.528;2023-04-24T12:58:18;11.00;99.90